Terminal Aerodrome Forecast
Issued by NWS Twin Cities, MN

Home | Current Version | Previous Version | Graphics & Text | Print | Product List | Glossary On
Versions: 1 2 3 4 5 6 7 8 9 10 11
000
FTUS43 KMPX 281120
TAFSTC
TAF
KSTC 281120Z 2812/0112 15004KT P6SM SKC
     FM281500 17008KT P6SM SCT250
     FM281900 17011G17KT P6SM SCT040 BKN070
     FM010100 17009KT P6SM OVC030
     FM010900 25006KT P6SM SCT030 BKN100=

USA.gov is the U.S. government's official web portal to all federal, state and local government web resources and services.